Ocoee 3 Observed Data For Previous 48 Hours

Caption
Day and Hour Reservoir Elevation (behind dam)* Tailwater Elevation (below dam)* Average Hourly Discharge*
9/21/2017 2 AM EDT 1,431.69 1,114.07 12
9/21/2017 3 AM EDT 1,431.95 1,114.07 0
9/21/2017 4 AM EDT 1,432.12 1,114.07 0
9/21/2017 5 AM EDT 1,432.25 1,114.07 0
9/21/2017 6 AM EDT 1,432.35 1,114.07 0
9/21/2017 7 AM EDT 1,432.44 1,114.07 0
9/21/2017 8 AM EDT 1,432.52 1,114.07 0
9/21/2017 9 AM EDT 1,432.60 1,114.07 0
9/21/2017 10 AM EDT 1,432.69 1,114.07 0
9/21/2017 11 AM EDT 1,432.76 1,114.06 0
9/21/2017 12 PM EDT 1,432.84 1,114.06 0
9/21/2017 1 PM EDT 1,432.84 1,118.55 253
9/21/2017 2 PM EDT 1,432.71 1,118.54 1,045
9/21/2017 3 PM EDT 1,432.56 1,118.50 1,049
9/21/2017 4 PM EDT 1,432.40 1,118.49 1,050
9/21/2017 5 PM EDT 1,432.25 1,118.56 1,053
9/21/2017 6 PM EDT 1,432.09 1,118.65 1,053
9/21/2017 7 PM EDT 1,431.92 1,118.45 1,052
9/21/2017 8 PM EDT 1,431.76 1,118.56 1,052
9/21/2017 9 PM EDT 1,431.65 1,118.56 1,053
9/21/2017 10 PM EDT 1,431.77 1,118.53 1,052
9/21/2017 11 PM EDT 1,431.98 1,118.61 1,053
9/22/2017 12 AM EDT 1,432.20 1,118.51 1,052
9/22/2017 1 AM EDT 1,432.36 1,118.53 1,052
9/22/2017 2 AM EDT 1,432.66 1,114.06 12
9/22/2017 3 AM EDT 1,432.86 1,114.07 0
9/22/2017 4 AM EDT 1,433.00 1,114.07 0
9/22/2017 5 AM EDT 1,433.11 1,114.07 0
9/22/2017 6 AM EDT 1,433.20 1,114.07 0
9/22/2017 7 AM EDT 1,433.27 1,114.07 0
9/22/2017 8 AM EDT 1,433.33 1,117.80 59
9/22/2017 9 AM EDT 1,433.19 1,118.53 1,045
9/22/2017 10 AM EDT 1,433.05 1,118.52 1,047
9/22/2017 11 AM EDT 1,432.90 1,118.57 1,049
9/22/2017 12 PM EDT 1,432.74 1,118.62 1,050
9/22/2017 1 PM EDT 1,432.59 1,118.58 1,050
9/22/2017 2 PM EDT 1,432.43 1,118.62 1,053
9/22/2017 3 PM EDT 1,432.27 1,118.52 1,055
9/22/2017 4 PM EDT 1,432.11 1,118.50 1,056
9/22/2017 5 PM EDT 1,431.95 1,118.65 1,051
9/22/2017 6 PM EDT 1,431.78 1,118.54 1,056
9/22/2017 7 PM EDT 1,431.66 1,118.61 1,053
9/22/2017 8 PM EDT 1,431.76 1,118.59 1,057
9/22/2017 9 PM EDT 1,431.96 1,118.56 1,053
9/22/2017 10 PM EDT 1,432.41 1,114.07 13
9/22/2017 11 PM EDT 1,432.83 1,114.07 0
9/23/2017 12 AM EDT 1,433.12 1,114.07 0
9/23/2017 1 AM EDT 1,433.30 1,114.07 0
9/23/2017 2 AM EDT 1,433.42 1,114.06 0
9/23/2017 3 AM EDT 1,433.52 1,114.07 0

Elevations are in feet above sea level. Discharges are in cubic feet per second and are reported at the end of the hour.